createdAt,value
2022-12-24T00:00:46.612Z,16.63
2022-12-24T00:05:48.108Z,20.23
2022-12-24T00:10:53.589Z,20.90
2022-12-24T00:15:55.121Z,18.50
2022-12-24T00:20:56.610Z,17.83
2022-12-24T00:25:58.148Z,24.33
2022-12-24T00:30:59.679Z,16.93
2022-12-24T00:36:01.147Z,17.03
2022-12-24T00:41:04.476Z,15.60
2022-12-24T00:46:06.000Z,22.13
2022-12-24T00:51:07.555Z,18.90
2022-12-24T00:56:09.745Z,19.90
2022-12-24T01:01:12.043Z,21.53
2022-12-24T01:06:16.666Z,27.37
2022-12-24T01:16:20.833Z,20.37
2022-12-24T01:21:22.374Z,19.00
2022-12-24T01:26:23.860Z,15.50
2022-12-24T01:31:25.382Z,15.77
2022-12-24T01:36:26.862Z,17.17
2022-12-24T01:41:49.372Z,12.90
2022-12-24T01:46:54.962Z,14.63
2022-12-24T01:52:04.897Z,18.80
2022-12-24T01:57:24.196Z,18.77
2022-12-24T02:02:27.212Z,15.33
2022-12-24T02:07:29.347Z,14.30
2022-12-24T02:12:35.156Z,18.13
2022-12-24T02:18:01.632Z,16.50
2022-12-24T02:23:18.454Z,21.73
2022-12-24T02:28:32.087Z,20.83
2022-12-24T02:33:50.489Z,34.10
2022-12-24T02:39:04.081Z,18.47
2022-12-24T02:44:05.581Z,17.23
2022-12-24T02:49:07.198Z,16.90
2022-12-24T02:54:08.672Z,11.90
2022-12-24T02:59:34.434Z,18.07
2022-12-24T03:04:48.240Z,16.80
2022-12-24T03:10:17.839Z,15.63
2022-12-24T03:15:21.839Z,20.73
2022-12-24T03:20:31.154Z,16.73
2022-12-24T03:25:34.176Z,17.63
2022-12-24T03:30:38.837Z,17.23
2022-12-24T03:40:41.814Z,11.43
2022-12-24T03:45:43.361Z,14.77
2022-12-24T03:50:44.858Z,21.13
2022-12-24T03:55:47.250Z,11.10
2022-12-24T04:00:48.754Z,11.63
2022-12-24T04:06:07.598Z,13.60
2022-12-24T04:11:11.201Z,15.27
2022-12-24T04:16:15.714Z,8.73
2022-12-24T04:21:17.279Z,13.45
2022-12-24T04:26:18.785Z,16.70
2022-12-24T04:31:20.324Z,12.77
2022-12-24T04:36:23.287Z,12.67
2022-12-24T04:41:25.228Z,13.93
2022-12-24T04:46:31.895Z,15.23
2022-12-24T04:51:33.515Z,17.80
2022-12-24T04:56:35.024Z,15.83
2022-12-24T05:01:36.748Z,11.80
2022-12-24T05:06:38.403Z,10.43
2022-12-24T05:11:39.927Z,12.20
2022-12-24T05:16:41.423Z,14.37
2022-12-24T05:21:42.906Z,11.67
2022-12-24T05:26:54.766Z,13.03
2022-12-24T05:31:56.254Z,12.57
2022-12-24T05:36:57.681Z,16.93
2022-12-24T05:41:59.157Z,13.53
2022-12-24T05:47:00.642Z,12.27
2022-12-24T05:52:02.071Z,15.23
2022-12-24T05:57:03.554Z,16.03
2022-12-24T06:02:05.188Z,11.27
2022-12-24T06:07:06.706Z,13.23
2022-12-24T06:12:08.275Z,14.07
2022-12-24T06:17:09.762Z,15.63
2022-12-24T06:22:11.220Z,13.43
2022-12-24T06:27:12.634Z,13.60
2022-12-24T06:32:14.123Z,11.17
2022-12-24T06:37:18.405Z,15.93
2022-12-24T06:42:19.848Z,10.98
2022-12-24T06:47:21.339Z,10.53
2022-12-24T06:52:22.846Z,16.43
2022-12-24T06:57:24.304Z,16.17
2022-12-24T07:02:26.429Z,11.33
2022-12-24T07:07:28.022Z,20.60
2022-12-24T07:12:29.679Z,14.70
2022-12-24T07:17:31.127Z,19.53
2022-12-24T07:22:32.711Z,18.47
2022-12-24T07:27:34.165Z,12.77
2022-12-24T07:32:35.602Z,12.47
2022-12-24T07:37:37.229Z,17.53
2022-12-24T07:42:38.679Z,18.57
2022-12-24T07:47:40.190Z,15.27
2022-12-24T07:52:41.629Z,15.50
2022-12-24T07:57:43.019Z,13.67
2022-12-24T08:02:44.839Z,13.47
2022-12-24T08:07:46.463Z,15.20
2022-12-24T08:12:48.348Z,12.33
2022-12-24T08:17:49.925Z,18.87
2022-12-24T08:22:52.395Z,16.50
2022-12-24T08:27:53.889Z,17.77
2022-12-24T08:32:55.325Z,14.17
2022-12-24T08:37:56.924Z,13.87
2022-12-24T08:42:58.422Z,13.93
2022-12-24T08:48:00.492Z,14.90
2022-12-24T08:53:02.124Z,17.40
2022-12-24T08:58:03.636Z,12.43
2022-12-24T09:03:05.228Z,14.00
2022-12-24T09:08:06.771Z,14.03
2022-12-24T09:13:08.175Z,17.27
2022-12-24T09:18:10.590Z,17.23
2022-12-24T09:23:12.138Z,16.77
2022-12-24T09:28:13.559Z,16.90
2022-12-24T09:33:15.125Z,12.63
2022-12-24T09:38:16.641Z,12.70
2022-12-24T09:43:20.362Z,17.07
2022-12-24T09:48:27.983Z,14.00
2022-12-24T09:53:57.156Z,15.73
2022-12-24T09:59:01.386Z,14.00
2022-12-24T10:04:27.307Z,18.08
2022-12-24T10:09:51.029Z,14.43
2022-12-24T10:14:59.234Z,13.32
2022-12-24T10:20:29.185Z,10.83
2022-12-24T10:25:33.932Z,11.90
2022-12-24T10:30:35.842Z,9.40
2022-12-24T10:35:45.116Z,12.80
2022-12-24T10:40:50.208Z,14.67
2022-12-24T10:45:56.966Z,13.33
2022-12-24T10:51:04.059Z,10.30
2022-12-24T10:56:09.274Z,14.03
2022-12-24T11:01:10.923Z,9.93
2022-12-24T11:06:21.222Z,13.30
2022-12-24T11:11:23.451Z,11.90
2022-12-24T11:16:32.121Z,11.83
2022-12-24T11:21:40.101Z,12.13
2022-12-24T11:26:44.488Z,10.97
2022-12-24T11:31:47.321Z,11.27
2022-12-24T11:36:50.928Z,13.80
2022-12-24T11:41:54.141Z,9.90
2022-12-24T11:46:59.174Z,36.20
2022-12-24T11:52:09.883Z,11.50
2022-12-24T11:57:15.874Z,9.80
2022-12-24T12:02:35.056Z,11.97
2022-12-24T12:07:38.631Z,11.40
2022-12-24T12:12:47.091Z,9.03
2022-12-24T12:17:57.486Z,14.17
2022-12-24T12:23:15.187Z,11.20
2022-12-24T12:28:27.011Z,15.27
2022-12-24T12:33:38.847Z,11.87
2022-12-24T12:38:40.731Z,14.70
2022-12-24T12:44:13.924Z,12.43
2022-12-24T12:49:34.145Z,18.17
2022-12-24T12:55:11.111Z,14.40
2022-12-24T13:00:17.244Z,14.77
2022-12-24T13:05:36.827Z,15.43
2022-12-24T13:10:54.192Z,12.63
2022-12-24T13:16:23.752Z,20.83
2022-12-24T13:21:29.833Z,18.53
2022-12-24T13:26:31.352Z,19.20
2022-12-24T13:31:32.862Z,20.07
2022-12-24T13:37:16.546Z,17.33
2022-12-24T13:42:50.169Z,19.45
2022-12-24T13:47:51.643Z,18.27
2022-12-24T13:52:54.247Z,20.13
2022-12-24T13:58:05.363Z,121.10
2022-12-24T14:03:09.775Z,28.67
2022-12-24T14:08:34.681Z,23.52
2022-12-24T14:13:39.248Z,23.45
2022-12-24T14:23:56.210Z,25.47
2022-12-24T14:29:03.102Z,22.80
2022-12-24T14:34:12.274Z,29.20
2022-12-24T14:39:31.013Z,31.33
2022-12-24T14:44:44.219Z,22.50
2022-12-24T14:50:11.191Z,25.37
2022-12-24T14:55:37.977Z,23.57
2022-12-24T15:00:42.790Z,25.52
2022-12-24T15:05:45.818Z,25.80
2022-12-24T15:10:52.291Z,26.33
2022-12-24T15:15:55.431Z,32.60
2022-12-24T15:21:04.335Z,28.85
2022-12-24T15:26:18.827Z,29.90
2022-12-24T15:31:24.926Z,34.50
2022-12-24T15:36:31.390Z,39.50
2022-12-24T15:42:01.436Z,34.20
2022-12-24T15:47:05.988Z,28.58
2022-12-24T15:52:19.538Z,32.15
2022-12-24T15:57:29.558Z,36.50
2022-12-24T16:02:43.122Z,39.53
2022-12-24T16:08:08.716Z,44.00
2022-12-24T16:13:28.144Z,39.87
2022-12-24T16:18:39.088Z,53.70
2022-12-24T16:23:50.838Z,34.50
2022-12-24T16:28:52.334Z,30.13
2022-12-24T16:33:57.194Z,30.33
2022-12-24T16:39:18.179Z,39.67
2022-12-24T16:44:19.838Z,37.50
2022-12-24T16:49:22.701Z,36.15
2022-12-24T16:54:24.200Z,35.08
2022-12-24T16:59:25.657Z,32.97
2022-12-24T17:04:27.070Z,45.45
2022-12-24T17:09:28.523Z,32.22
2022-12-24T17:14:30.098Z,32.63
2022-12-24T17:19:31.929Z,41.23
2022-12-24T17:24:33.465Z,44.03
2022-12-24T17:29:35.020Z,39.70
2022-12-24T17:34:36.650Z,39.10
2022-12-24T17:39:38.177Z,60.45
2022-12-24T17:44:39.661Z,48.87
2022-12-24T17:49:41.138Z,49.23
2022-12-24T17:54:42.612Z,46.80
2022-12-24T17:59:44.243Z,56.63
2022-12-24T18:04:45.700Z,75.10
2022-12-24T18:09:47.138Z,56.00
2022-12-24T18:14:48.550Z,61.37
2022-12-24T18:19:50.104Z,61.10
2022-12-24T18:24:51.552Z,52.33
2022-12-24T18:29:53.039Z,43.88
2022-12-24T18:34:54.502Z,45.35
2022-12-24T18:39:55.946Z,46.13
2022-12-24T18:44:57.406Z,50.15
2022-12-24T18:49:58.905Z,47.33
2022-12-24T18:55:00.369Z,37.08
2022-12-24T19:00:01.872Z,41.67
2022-12-24T19:05:03.492Z,39.90
2022-12-24T19:10:05.464Z,33.38
2022-12-24T19:15:07.398Z,28.20
2022-12-24T19:20:10.387Z,36.45
2022-12-24T19:25:11.982Z,26.42
2022-12-24T19:30:14.611Z,28.63
2022-12-24T19:35:16.581Z,29.13
2022-12-24T19:40:18.134Z,23.63
2022-12-24T19:45:20.733Z,24.98
2022-12-24T19:50:22.290Z,27.45
2022-12-24T19:55:23.831Z,25.15
2022-12-24T20:00:25.491Z,33.28
2022-12-24T20:05:26.980Z,27.27
2022-12-24T20:10:28.454Z,21.50
2022-12-24T20:15:29.888Z,23.40
2022-12-24T20:20:31.378Z,22.58
2022-12-24T20:25:37.550Z,70.80
2022-12-24T20:30:40.286Z,32.13
2022-12-24T20:35:41.830Z,25.35
2022-12-24T20:40:45.266Z,31.27
2022-12-24T20:45:51.054Z,23.33
2022-12-24T20:50:52.762Z,26.55
2022-12-24T20:55:54.836Z,22.83
2022-12-24T21:00:56.368Z,23.45
2022-12-24T21:05:57.851Z,20.80
2022-12-24T21:11:18.142Z,27.67
2022-12-24T21:16:19.660Z,32.20
2022-12-24T21:21:21.670Z,27.52
2022-12-24T21:26:23.478Z,32.70
2022-12-24T21:31:25.056Z,59.80
2022-12-24T21:36:26.910Z,40.65
2022-12-24T21:41:29.026Z,37.17
2022-12-24T21:46:30.817Z,30.55
2022-12-24T21:51:33.100Z,37.53
2022-12-24T21:56:54.660Z,35.17
2022-12-24T22:01:57.059Z,34.28
2022-12-24T22:07:17.790Z,33.95
2022-12-24T22:12:19.854Z,44.25
2022-12-24T22:17:25.450Z,20.20
2022-12-24T22:22:27.451Z,33.15
2022-12-24T22:27:28.941Z,25.25
2022-12-24T22:32:30.405Z,30.70
2022-12-24T22:37:31.879Z,41.10
2022-12-24T22:42:34.090Z,36.08
2022-12-24T22:47:35.580Z,35.00
2022-12-24T22:52:37.033Z,50.15
2022-12-24T22:57:38.518Z,35.17
2022-12-24T23:02:40.152Z,33.72
2022-12-24T23:07:41.705Z,34.15
2022-12-24T23:13:01.951Z,23.00
2022-12-24T23:18:03.817Z,20.75
2022-12-24T23:23:05.314Z,27.75
2022-12-24T23:28:07.333Z,31.33
2022-12-24T23:33:08.800Z,21.45
2022-12-24T23:38:10.246Z,24.00
2022-12-24T23:43:11.734Z,22.92
2022-12-24T23:48:13.221Z,16.85
2022-12-24T23:53:15.889Z,34.75
2022-12-24T23:58:17.414Z,21.33
